sensor_id;sensor_type;location;lat;lon;timestamp;temperature;humidity
63317;DHT22;49822;41.468;13.560;2022-12-24T00:01:27;6.60;95.00
63317;DHT22;49822;41.468;13.560;2022-12-24T00:03:54;7.10;96.70
63317;DHT22;49822;41.468;13.560;2022-12-24T00:06:22;7.20;96.00
63317;DHT22;49822;41.468;13.560;2022-12-24T00:08:51;7.20;95.80
63317;DHT22;49822;41.468;13.560;2022-12-24T00:11:20;7.00;94.50
63317;DHT22;49822;41.468;13.560;2022-12-24T00:13:48;6.60;92.40
63317;DHT22;49822;41.468;13.560;2022-12-24T00:16:15;6.50;92.10
63317;DHT22;49822;41.468;13.560;2022-12-24T00:18:43;6.70;92.40
63317;DHT22;49822;41.468;13.560;2022-12-24T00:21:14;6.80;92.50
63317;DHT22;49822;41.468;13.560;2022-12-24T00:23:42;6.80;92.20
63317;DHT22;49822;41.468;13.560;2022-12-24T00:26:10;6.50;89.70
63317;DHT22;49822;41.468;13.560;2022-12-24T00:28:38;5.80;90.40
63317;DHT22;49822;41.468;13.560;2022-12-24T00:31:13;5.60;93.30
63317;DHT22;49822;41.468;13.560;2022-12-24T00:33:41;5.90;95.40
63317;DHT22;49822;41.468;13.560;2022-12-24T00:36:09;6.30;96.80
63317;DHT22;49822;41.468;13.560;2022-12-24T00:38:37;6.50;97.10
63317;DHT22;49822;41.468;13.560;2022-12-24T00:41:07;6.50;97.10
63317;DHT22;49822;41.468;13.560;2022-12-24T00:43:57;6.40;96.50
63317;DHT22;49822;41.468;13.560;2022-12-24T00:46:28;6.00;96.20
63317;DHT22;49822;41.468;13.560;2022-12-24T00:48:57;6.10;96.90
63317;DHT22;49822;41.468;13.560;2022-12-24T00:51:24;6.50;97.80
63317;DHT22;49822;41.468;13.560;2022-12-24T00:53:53;6.70;97.50
63317;DHT22;49822;41.468;13.560;2022-12-24T00:56:21;6.70;97.30
63317;DHT22;49822;41.468;13.560;2022-12-24T00:58:50;6.80;97.10
63317;DHT22;49822;41.468;13.560;2022-12-24T01:01:18;6.80;96.80
63317;DHT22;49822;41.468;13.560;2022-12-24T01:03:46;6.80;96.20
63317;DHT22;49822;41.468;13.560;2022-12-24T01:06:16;6.70;95.60
63317;DHT22;49822;41.468;13.560;2022-12-24T01:08:44;6.80;95.20
63317;DHT22;49822;41.468;13.560;2022-12-24T01:11:12;6.70;94.30
63317;DHT22;49822;41.468;13.560;2022-12-24T01:13:40;6.50;93.00
63317;DHT22;49822;41.468;13.560;2022-12-24T01:16:19;6.20;92.50
63317;DHT22;49822;41.468;13.560;2022-12-24T01:18:46;5.70;92.80
63317;DHT22;49822;41.468;13.560;2022-12-24T01:21:14;5.70;94.10
63317;DHT22;49822;41.468;13.560;2022-12-24T01:23:43;5.90;95.20
63317;DHT22;49822;41.468;13.560;2022-12-24T01:26:10;6.10;95.70
63317;DHT22;49822;41.468;13.560;2022-12-24T01:28:41;6.30;95.90
63317;DHT22;49822;41.468;13.560;2022-12-24T01:31:16;6.50;95.80
63317;DHT22;49822;41.468;13.560;2022-12-24T01:33:44;6.60;95.40
63317;DHT22;49822;41.468;13.560;2022-12-24T01:36:13;6.70;95.00
63317;DHT22;49822;41.468;13.560;2022-12-24T01:38:40;6.50;93.20
63317;DHT22;49822;41.468;13.560;2022-12-24T01:41:14;6.30;92.80
63317;DHT22;49822;41.468;13.560;2022-12-24T01:44:27;6.30;92.60
63317;DHT22;49822;41.468;13.560;2022-12-24T01:47:07;6.10;93.10
63317;DHT22;49822;41.468;13.560;2022-12-24T01:49:37;6.20;94.30
63317;DHT22;49822;41.468;13.560;2022-12-24T01:52:10;6.30;94.90
63317;DHT22;49822;41.468;13.560;2022-12-24T01:54:49;6.50;95.30
63317;DHT22;49822;41.468;13.560;2022-12-24T01:57:27;6.30;94.00
63317;DHT22;49822;41.468;13.560;2022-12-24T02:00:03;6.50;95.60
63317;DHT22;49822;41.468;13.560;2022-12-24T02:02:32;6.60;95.40
63317;DHT22;49822;41.468;13.560;2022-12-24T02:05:21;6.60;95.10
63317;DHT22;49822;41.468;13.560;2022-12-24T02:07:51;6.60;94.80
63317;DHT22;49822;41.468;13.560;2022-12-24T02:10:19;6.60;94.50
63317;DHT22;49822;41.468;13.560;2022-12-24T02:12:46;5.80;91.20
63317;DHT22;49822;41.468;13.560;2022-12-24T02:15:17;5.80;93.50
63317;DHT22;49822;41.468;13.560;2022-12-24T02:18:09;6.10;94.60
63317;DHT22;49822;41.468;13.560;2022-12-24T02:31:40;6.40;92.80
63317;DHT22;49822;41.468;13.560;2022-12-24T02:34:32;5.70;91.00
63317;DHT22;49822;41.468;13.560;2022-12-24T02:37:04;5.80;92.50
63317;DHT22;49822;41.468;13.560;2022-12-24T02:39:46;5.90;92.20
63317;DHT22;49822;41.468;13.560;2022-12-24T02:42:23;6.00;91.80
63317;DHT22;49822;41.468;13.560;2022-12-24T02:44:59;6.10;92.00
63317;DHT22;49822;41.468;13.560;2022-12-24T02:47:30;6.00;90.50
63317;DHT22;49822;41.468;13.560;2022-12-24T02:50:01;5.70;90.30
63317;DHT22;49822;41.468;13.560;2022-12-24T02:52:35;5.60;90.30
63317;DHT22;49822;41.468;13.560;2022-12-24T03:05:58;5.70;92.10
63317;DHT22;49822;41.468;13.560;2022-12-24T03:08:47;5.70;93.40
63317;DHT22;49822;41.468;13.560;2022-12-24T03:11:17;5.90;94.40
63317;DHT22;49822;41.468;13.560;2022-12-24T03:13:46;6.10;94.50
63317;DHT22;49822;41.468;13.560;2022-12-24T03:16:16;6.10;94.10
63317;DHT22;49822;41.468;13.560;2022-12-24T03:18:48;6.00;93.40
63317;DHT22;49822;41.468;13.560;2022-12-24T03:21:27;6.00;94.30
63317;DHT22;49822;41.468;13.560;2022-12-24T03:23:55;6.20;94.80
63317;DHT22;49822;41.468;13.560;2022-12-24T03:26:25;6.30;94.60
63317;DHT22;49822;41.468;13.560;2022-12-24T03:28:54;6.00;93.80
63317;DHT22;49822;41.468;13.560;2022-12-24T03:31:22;6.10;95.00
63317;DHT22;49822;41.468;13.560;2022-12-24T03:33:50;6.30;95.30
63317;DHT22;49822;41.468;13.560;2022-12-24T03:36:18;6.20;94.60
63317;DHT22;49822;41.468;13.560;2022-12-24T03:38:46;6.20;94.50
63317;DHT22;49822;41.468;13.560;2022-12-24T03:41:13;6.10;94.10
63317;DHT22;49822;41.468;13.560;2022-12-24T03:43:41;6.10;93.50
63317;DHT22;49822;41.468;13.560;2022-12-24T03:46:09;5.90;92.50
63317;DHT22;49822;41.468;13.560;2022-12-24T03:48:36;5.80;91.50
63317;DHT22;49822;41.468;13.560;2022-12-24T03:51:04;5.50;89.80
63317;DHT22;49822;41.468;13.560;2022-12-24T03:53:42;5.10;90.20
63317;DHT22;49822;41.468;13.560;2022-12-24T03:56:09;4.70;89.50
63317;DHT22;49822;41.468;13.560;2022-12-24T03:58:36;4.30;91.00
63317;DHT22;49822;41.468;13.560;2022-12-24T04:01:05;4.50;92.80
63317;DHT22;49822;41.468;13.560;2022-12-24T04:03:37;4.60;93.40
63317;DHT22;49822;41.468;13.560;2022-12-24T04:06:11;4.70;93.70
63317;DHT22;49822;41.468;13.560;2022-12-24T04:08:39;4.90;93.70
63317;DHT22;49822;41.468;13.560;2022-12-24T04:11:10;4.90;93.00
63317;DHT22;49822;41.468;13.560;2022-12-24T04:13:39;4.80;93.00
63317;DHT22;49822;41.468;13.560;2022-12-24T04:16:09;4.90;92.90
63317;DHT22;49822;41.468;13.560;2022-12-24T04:18:38;4.90;93.10
63317;DHT22;49822;41.468;13.560;2022-12-24T04:21:07;4.90;93.00
63317;DHT22;49822;41.468;13.560;2022-12-24T04:23:37;4.90;92.60
63317;DHT22;49822;41.468;13.560;2022-12-24T04:26:07;4.50;92.50
63317;DHT22;49822;41.468;13.560;2022-12-24T04:28:36;4.50;93.20
63317;DHT22;49822;41.468;13.560;2022-12-24T04:31:10;4.50;93.70
63317;DHT22;49822;41.468;13.560;2022-12-24T04:33:39;4.70;94.60
63317;DHT22;49822;41.468;13.560;2022-12-24T04:36:07;4.90;94.90
63317;DHT22;49822;41.468;13.560;2022-12-24T04:38:37;5.00;94.80
63317;DHT22;49822;41.468;13.560;2022-12-24T04:41:06;5.00;94.80
63317;DHT22;49822;41.468;13.560;2022-12-24T04:43:34;5.00;94.10
63317;DHT22;49822;41.468;13.560;2022-12-24T04:46:07;4.90;94.00
63317;DHT22;49822;41.468;13.560;2022-12-24T04:48:35;5.00;94.00
63317;DHT22;49822;41.468;13.560;2022-12-24T04:51:07;5.10;94.00
63317;DHT22;49822;41.468;13.560;2022-12-24T04:53:37;5.10;93.90
63317;DHT22;49822;41.468;13.560;2022-12-24T04:56:16;5.20;94.00
63317;DHT22;49822;41.468;13.560;2022-12-24T04:58:45;5.30;93.90
63317;DHT22;49822;41.468;13.560;2022-12-24T05:01:16;5.30;93.50
63317;DHT22;49822;41.468;13.560;2022-12-24T05:03:47;5.10;92.10
63317;DHT22;49822;41.468;13.560;2022-12-24T05:06:18;4.50;91.90
63317;DHT22;49822;41.468;13.560;2022-12-24T05:08:46;4.50;93.20
63317;DHT22;49822;41.468;13.560;2022-12-24T05:11:14;4.70;93.70
63317;DHT22;49822;41.468;13.560;2022-12-24T05:13:43;4.80;94.30
63317;DHT22;49822;41.468;13.560;2022-12-24T05:16:15;5.00;94.40
63317;DHT22;49822;41.468;13.560;2022-12-24T05:18:44;5.10;94.20
63317;DHT22;49822;41.468;13.560;2022-12-24T05:21:16;5.20;93.90
63317;DHT22;49822;41.468;13.560;2022-12-24T05:23:46;5.30;93.40
63317;DHT22;49822;41.468;13.560;2022-12-24T05:26:36;4.90;91.60
63317;DHT22;49822;41.468;13.560;2022-12-24T05:29:06;4.70;92.10
63317;DHT22;49822;41.468;13.560;2022-12-24T05:31:34;4.80;92.50
63317;DHT22;49822;41.468;13.560;2022-12-24T05:34:02;4.70;92.20
63317;DHT22;49822;41.468;13.560;2022-12-24T05:36:31;4.60;92.50
63317;DHT22;49822;41.468;13.560;2022-12-24T05:38:58;4.70;92.70
63317;DHT22;49822;41.468;13.560;2022-12-24T05:41:26;4.40;91.60
63317;DHT22;49822;41.468;13.560;2022-12-24T05:43:54;4.00;92.10
63317;DHT22;49822;41.468;13.560;2022-12-24T05:46:22;4.00;93.50
63317;DHT22;49822;41.468;13.560;2022-12-24T05:48:51;4.20;94.20
63317;DHT22;49822;41.468;13.560;2022-12-24T05:51:23;4.40;94.70
63317;DHT22;49822;41.468;13.560;2022-12-24T05:53:51;4.30;94.60
63317;DHT22;49822;41.468;13.560;2022-12-24T05:56:21;4.50;95.50
63317;DHT22;49822;41.468;13.560;2022-12-24T05:58:50;4.80;95.90
63317;DHT22;49822;41.468;13.560;2022-12-24T06:01:22;4.80;95.50
63317;DHT22;49822;41.468;13.560;2022-12-24T06:03:51;4.80;95.00
63317;DHT22;49822;41.468;13.560;2022-12-24T06:06:21;4.90;95.00
63317;DHT22;49822;41.468;13.560;2022-12-24T06:08:52;5.00;94.90
63317;DHT22;49822;41.468;13.560;2022-12-24T06:11:27;5.00;93.90
63317;DHT22;49822;41.468;13.560;2022-12-24T06:14:04;4.80;93.50
63317;DHT22;49822;41.468;13.560;2022-12-24T06:16:32;4.90;93.60
63317;DHT22;49822;41.468;13.560;2022-12-24T06:19:00;5.00;93.60
63317;DHT22;49822;41.468;13.560;2022-12-24T06:21:29;5.20;93.60
63317;DHT22;49822;41.468;13.560;2022-12-24T06:24:00;5.30;93.50
63317;DHT22;49822;41.468;13.560;2022-12-24T06:26:27;5.10;92.00
63317;DHT22;49822;41.468;13.560;2022-12-24T06:28:55;4.90;92.30
63317;DHT22;49822;41.468;13.560;2022-12-24T06:31:23;4.90;92.40
63317;DHT22;49822;41.468;13.560;2022-12-24T06:33:52;4.70;92.80
63317;DHT22;49822;41.468;13.560;2022-12-24T06:36:24;4.70;93.80
63317;DHT22;49822;41.468;13.560;2022-12-24T06:38:53;4.70;94.40
63317;DHT22;49822;41.468;13.560;2022-12-24T06:41:21;4.70;94.90
63317;DHT22;49822;41.468;13.560;2022-12-24T06:43:51;4.70;95.40
63317;DHT22;49822;41.468;13.560;2022-12-24T06:46:20;4.90;95.90
63317;DHT22;49822;41.468;13.560;2022-12-24T06:48:48;5.10;96.20
63317;DHT22;49822;41.468;13.560;2022-12-24T06:51:17;5.30;96.20
63317;DHT22;49822;41.468;13.560;2022-12-24T06:53:49;5.30;96.10
63317;DHT22;49822;41.468;13.560;2022-12-24T06:56:18;5.30;95.90
63317;DHT22;49822;41.468;13.560;2022-12-24T06:58:48;5.40;95.90
63317;DHT22;49822;41.468;13.560;2022-12-24T07:01:18;5.50;95.80
63317;DHT22;49822;41.468;13.560;2022-12-24T07:03:47;5.30;95.50
63317;DHT22;49822;41.468;13.560;2022-12-24T07:06:26;5.30;95.20
63317;DHT22;49822;41.468;13.560;2022-12-24T07:08:55;5.20;95.30
63317;DHT22;49822;41.468;13.560;2022-12-24T07:11:24;5.30;95.30
63317;DHT22;49822;41.468;13.560;2022-12-24T07:13:52;5.30;95.30
63317;DHT22;49822;41.468;13.560;2022-12-24T07:16:20;5.30;95.10
63317;DHT22;49822;41.468;13.560;2022-12-24T07:18:51;5.10;95.10
63317;DHT22;49822;41.468;13.560;2022-12-24T07:21:19;5.30;95.60
63317;DHT22;49822;41.468;13.560;2022-12-24T07:23:49;5.50;95.50
63317;DHT22;49822;41.468;13.560;2022-12-24T07:26:17;5.50;95.30
63317;DHT22;49822;41.468;13.560;2022-12-24T07:28:45;5.60;95.10
63317;DHT22;49822;41.468;13.560;2022-12-24T07:31:13;5.40;94.20
63317;DHT22;49822;41.468;13.560;2022-12-24T07:33:40;5.10;94.00
63317;DHT22;49822;41.468;13.560;2022-12-24T07:36:14;5.00;94.80
63317;DHT22;49822;41.468;13.560;2022-12-24T07:38:43;5.00;95.50
63317;DHT22;49822;41.468;13.560;2022-12-24T07:41:11;5.30;96.10
63317;DHT22;49822;41.468;13.560;2022-12-24T07:43:38;5.50;96.40
63317;DHT22;49822;41.468;13.560;2022-12-24T07:46:06;5.70;96.40
63317;DHT22;49822;41.468;13.560;2022-12-24T07:48:34;5.70;95.80
63317;DHT22;49822;41.468;13.560;2022-12-24T07:51:02;6.00;95.90
63317;DHT22;49822;41.468;13.560;2022-12-24T07:53:30;6.10;95.40
63317;DHT22;49822;41.468;13.560;2022-12-24T07:55:58;6.30;95.00
63317;DHT22;49822;41.468;13.560;2022-12-24T08:01:59;6.40;93.10
63317;DHT22;49822;41.468;13.560;2022-12-24T08:04:55;6.10;92.00
63317;DHT22;49822;41.468;13.560;2022-12-24T08:07:23;6.00;92.80
63317;DHT22;49822;41.468;13.560;2022-12-24T08:09:51;6.40;93.70
63317;DHT22;49822;41.468;13.560;2022-12-24T08:12:19;6.80;93.80
63317;DHT22;49822;41.468;13.560;2022-12-24T08:14:50;6.90;92.50
63317;DHT22;49822;41.468;13.560;2022-12-24T08:17:18;7.00;92.20
63317;DHT22;49822;41.468;13.560;2022-12-24T08:19:46;7.30;92.10
63317;DHT22;49822;41.468;13.560;2022-12-24T08:22:15;7.50;91.20
63317;DHT22;49822;41.468;13.560;2022-12-24T08:24:42;7.50;89.70
63317;DHT22;49822;41.468;13.560;2022-12-24T08:27:10;7.60;89.60
63317;DHT22;49822;41.468;13.560;2022-12-24T08:29:37;7.60;88.90
63317;DHT22;49822;41.468;13.560;2022-12-24T08:32:06;7.50;89.10
63317;DHT22;49822;41.468;13.560;2022-12-24T08:34:33;7.50;89.40
63317;DHT22;49822;41.468;13.560;2022-12-24T08:37:01;7.50;89.00
63317;DHT22;49822;41.468;13.560;2022-12-24T08:39:29;7.50;89.50
63317;DHT22;49822;41.468;13.560;2022-12-24T08:41:56;7.60;89.90
63317;DHT22;49822;41.468;13.560;2022-12-24T08:44:25;7.80;89.60
63317;DHT22;49822;41.468;13.560;2022-12-24T08:46:52;8.00;88.80
63317;DHT22;49822;41.468;13.560;2022-12-24T08:49:23;7.90;87.60
63317;DHT22;49822;41.468;13.560;2022-12-24T08:51:50;7.60;87.50
63317;DHT22;49822;41.468;13.560;2022-12-24T08:54:20;7.20;89.40
63317;DHT22;49822;41.468;13.560;2022-12-24T08:56:51;7.00;90.90
63317;DHT22;49822;41.468;13.560;2022-12-24T08:59:18;7.00;92.30
63317;DHT22;49822;41.468;13.560;2022-12-24T09:01:47;7.10;92.60
63317;DHT22;49822;41.468;13.560;2022-12-24T09:04:18;7.30;92.80
63317;DHT22;49822;41.468;13.560;2022-12-24T09:06:46;7.50;92.40
63317;DHT22;49822;41.468;13.560;2022-12-24T09:09:14;7.50;92.00
63317;DHT22;49822;41.468;13.560;2022-12-24T09:11:41;7.60;92.00
63317;DHT22;49822;41.468;13.560;2022-12-24T09:14:09;7.80;92.30
63317;DHT22;49822;41.468;13.560;2022-12-24T09:16:37;8.00;91.60
63317;DHT22;49822;41.468;13.560;2022-12-24T09:19:05;8.10;91.50
63317;DHT22;49822;41.468;13.560;2022-12-24T09:21:33;8.30;91.20
63317;DHT22;49822;41.468;13.560;2022-12-24T09:24:03;8.40;91.10
63317;DHT22;49822;41.468;13.560;2022-12-24T09:26:31;8.60;90.40
63317;DHT22;49822;41.468;13.560;2022-12-24T09:28:59;8.70;90.30
63317;DHT22;49822;41.468;13.560;2022-12-24T09:31:28;9.10;90.90
63317;DHT22;49822;41.468;13.560;2022-12-24T09:33:56;10.00;89.40
63317;DHT22;49822;41.468;13.560;2022-12-24T09:36:24;10.10;86.70
63317;DHT22;49822;41.468;13.560;2022-12-24T09:38:52;10.50;86.30
63317;DHT22;49822;41.468;13.560;2022-12-24T09:44:42;10.40;83.80
63317;DHT22;49822;41.468;13.560;2022-12-24T09:50:03;10.20;84.70
63317;DHT22;49822;41.468;13.560;2022-12-24T09:52:40;10.10;85.30
63317;DHT22;49822;41.468;13.560;2022-12-24T09:55:27;10.20;85.40
63317;DHT22;49822;41.468;13.560;2022-12-24T09:57:58;10.10;85.40
63317;DHT22;49822;41.468;13.560;2022-12-24T10:00:34;10.00;86.10
63317;DHT22;49822;41.468;13.560;2022-12-24T10:03:16;10.10;86.30
63317;DHT22;49822;41.468;13.560;2022-12-24T10:16:36;10.10;87.40
63317;DHT22;49822;41.468;13.560;2022-12-24T10:25:42;9.90;88.40
63317;DHT22;49822;41.468;13.560;2022-12-24T10:28:21;10.00;88.70
63317;DHT22;49822;41.468;13.560;2022-12-24T10:30:56;10.20;88.20
63317;DHT22;49822;41.468;13.560;2022-12-24T10:33:34;10.40;87.80
63317;DHT22;49822;41.468;13.560;2022-12-24T10:36:13;10.50;87.20
63317;DHT22;49822;41.468;13.560;2022-12-24T10:38:41;10.60;87.50
63317;DHT22;49822;41.468;13.560;2022-12-24T10:41:09;10.80;86.90
63317;DHT22;49822;41.468;13.560;2022-12-24T10:43:46;10.70;87.00
63317;DHT22;49822;41.468;13.560;2022-12-24T10:46:23;10.80;86.60
63317;DHT22;49822;41.468;13.560;2022-12-24T10:49:00;11.00;86.20
63317;DHT22;49822;41.468;13.560;2022-12-24T10:54:32;11.30;85.50
63317;DHT22;49822;41.468;13.560;2022-12-24T10:57:24;11.70;83.70
63317;DHT22;49822;41.468;13.560;2022-12-24T10:59:54;11.80;83.40
63317;DHT22;49822;41.468;13.560;2022-12-24T11:02:28;12.10;82.40
63317;DHT22;49822;41.468;13.560;2022-12-24T11:04:58;12.10;80.90
63317;DHT22;49822;41.468;13.560;2022-12-24T11:07:28;12.00;80.80
63317;DHT22;49822;41.468;13.560;2022-12-24T11:10:05;12.10;80.90
63317;DHT22;49822;41.468;13.560;2022-12-24T11:12:45;12.00;80.50
63317;DHT22;49822;41.468;13.560;2022-12-24T11:15:35;11.80;80.90
63317;DHT22;49822;41.468;13.560;2022-12-24T11:18:12;11.60;80.70
63317;DHT22;49822;41.468;13.560;2022-12-24T11:21:02;11.50;81.90
63317;DHT22;49822;41.468;13.560;2022-12-24T11:24:32;11.50;82.20
63317;DHT22;49822;41.468;13.560;2022-12-24T11:27:38;11.70;83.90
63317;DHT22;49822;41.468;13.560;2022-12-24T11:35:28;12.20;81.50
63317;DHT22;49822;41.468;13.560;2022-12-24T11:38:25;12.30;81.10
63317;DHT22;49822;41.468;13.560;2022-12-24T11:41:37;12.30;81.10
63317;DHT22;49822;41.468;13.560;2022-12-24T11:44:26;12.40;80.60
63317;DHT22;49822;41.468;13.560;2022-12-24T11:47:03;12.50;80.30
63317;DHT22;49822;41.468;13.560;2022-12-24T11:53:30;12.50;80.80
63317;DHT22;49822;41.468;13.560;2022-12-24T11:56:05;12.50;81.70
63317;DHT22;49822;41.468;13.560;2022-12-24T11:58:52;12.60;80.80
63317;DHT22;49822;41.468;13.560;2022-12-24T12:01:29;12.80;80.70
63317;DHT22;49822;41.468;13.560;2022-12-24T12:04:09;12.90;80.20
63317;DHT22;49822;41.468;13.560;2022-12-24T12:09:36;13.30;79.40
63317;DHT22;49822;41.468;13.560;2022-12-24T12:12:16;13.30;79.50
63317;DHT22;49822;41.468;13.560;2022-12-24T12:18:54;13.50;79.00
63317;DHT22;49822;41.468;13.560;2022-12-24T12:21:29;13.50;78.80
63317;DHT22;49822;41.468;13.560;2022-12-24T12:24:05;13.60;78.40
63317;DHT22;49822;41.468;13.560;2022-12-24T12:26:34;13.90;77.00
63317;DHT22;49822;41.468;13.560;2022-12-24T12:31:53;14.10;76.20
63317;DHT22;49822;41.468;13.560;2022-12-24T12:34:36;14.20;76.20
63317;DHT22;49822;41.468;13.560;2022-12-24T12:37:13;14.20;75.70
63317;DHT22;49822;41.468;13.560;2022-12-24T12:39:44;14.10;75.50
63317;DHT22;49822;41.468;13.560;2022-12-24T12:58:02;13.50;77.80
63317;DHT22;49822;41.468;13.560;2022-12-24T13:00:36;13.40;77.80
63317;DHT22;49822;41.468;13.560;2022-12-24T13:03:33;13.30;78.10
63317;DHT22;49822;41.468;13.560;2022-12-24T13:11:56;13.10;79.30
63317;DHT22;49822;41.468;13.560;2022-12-24T13:14:50;13.30;78.70
63317;DHT22;49822;41.468;13.560;2022-12-24T13:20:30;13.30;78.50
63317;DHT22;49822;41.468;13.560;2022-12-24T13:25:40;13.50;78.90
63317;DHT22;49822;41.468;13.560;2022-12-24T13:33:48;13.30;78.60
63317;DHT22;49822;41.468;13.560;2022-12-24T13:36:17;13.30;79.40
63317;DHT22;49822;41.468;13.560;2022-12-24T13:38:52;13.50;78.70
63317;DHT22;49822;41.468;13.560;2022-12-24T13:49:49;13.50;78.40
63317;DHT22;49822;41.468;13.560;2022-12-24T13:52:23;13.50;77.10
63317;DHT22;49822;41.468;13.560;2022-12-24T14:03:21;12.80;79.90
63317;DHT22;49822;41.468;13.560;2022-12-24T14:06:20;13.10;81.00
63317;DHT22;49822;41.468;13.560;2022-12-24T14:09:13;13.40;79.10
63317;DHT22;49822;41.468;13.560;2022-12-24T14:14:44;13.90;77.20
63317;DHT22;49822;41.468;13.560;2022-12-24T14:17:26;14.00;76.80
63317;DHT22;49822;41.468;13.560;2022-12-24T14:20:08;13.90;77.10
63317;DHT22;49822;41.468;13.560;2022-12-24T14:22:45;13.90;77.10
63317;DHT22;49822;41.468;13.560;2022-12-24T14:25:20;13.90;77.50
63317;DHT22;49822;41.468;13.560;2022-12-24T14:28:06;13.70;78.00
63317;DHT22;49822;41.468;13.560;2022-12-24T14:30:40;13.50;77.70
63317;DHT22;49822;41.468;13.560;2022-12-24T14:33:36;13.30;78.30
63317;DHT22;49822;41.468;13.560;2022-12-24T14:36:03;13.30;79.10
63317;DHT22;49822;41.468;13.560;2022-12-24T14:38:31;13.10;79.30
63317;DHT22;49822;41.468;13.560;2022-12-24T14:46:45;12.90;81.90
63317;DHT22;49822;41.468;13.560;2022-12-24T14:49:24;12.90;82.20
63317;DHT22;49822;41.468;13.560;2022-12-24T14:52:15;12.90;81.90
63317;DHT22;49822;41.468;13.560;2022-12-24T14:55:43;12.50;83.60
63317;DHT22;49822;41.468;13.560;2022-12-24T14:58:34;12.30;84.60
63317;DHT22;49822;41.468;13.560;2022-12-24T15:04:13;12.10;86.00
63317;DHT22;49822;41.468;13.560;2022-12-24T15:06:45;12.10;86.40
63317;DHT22;49822;41.468;13.560;2022-12-24T15:09:22;12.10;86.40
63317;DHT22;49822;41.468;13.560;2022-12-24T15:11:53;12.10;86.50
63317;DHT22;49822;41.468;13.560;2022-12-24T15:14:24;12.10;86.30
63317;DHT22;49822;41.468;13.560;2022-12-24T15:17:03;12.00;85.90
63317;DHT22;49822;41.468;13.560;2022-12-24T15:19:40;11.70;87.10
63317;DHT22;49822;41.468;13.560;2022-12-24T15:22:25;11.50;89.20
63317;DHT22;49822;41.468;13.560;2022-12-24T15:24:53;11.40;90.50
63317;DHT22;49822;41.468;13.560;2022-12-24T15:27:24;11.30;91.20
63317;DHT22;49822;41.468;13.560;2022-12-24T15:29:55;11.40;91.10
63317;DHT22;49822;41.468;13.560;2022-12-24T15:32:23;11.50;90.80
63317;DHT22;49822;41.468;13.560;2022-12-24T15:34:53;11.50;90.20
63317;DHT22;49822;41.468;13.560;2022-12-24T15:37:28;11.30;89.20
63317;DHT22;49822;41.468;13.560;2022-12-24T15:42:27;10.90;92.10
63317;DHT22;49822;41.468;13.560;2022-12-24T15:45:03;10.90;92.60
63317;DHT22;49822;41.468;13.560;2022-12-24T15:47:34;11.10;93.00
63317;DHT22;49822;41.468;13.560;2022-12-24T15:50:15;11.10;92.80
63317;DHT22;49822;41.468;13.560;2022-12-24T15:52:45;11.00;91.30
63317;DHT22;49822;41.468;13.560;2022-12-24T15:58:17;10.90;91.20
63317;DHT22;49822;41.468;13.560;2022-12-24T16:01:25;10.60;90.90
63317;DHT22;49822;41.468;13.560;2022-12-24T16:03:57;10.70;92.20
63317;DHT22;49822;41.468;13.560;2022-12-24T16:06:26;10.70;91.90
63317;DHT22;49822;41.468;13.560;2022-12-24T16:08:54;10.60;91.40
63317;DHT22;49822;41.468;13.560;2022-12-24T16:11:40;10.20;91.90
63317;DHT22;49822;41.468;13.560;2022-12-24T16:16:45;10.40;94.10
63317;DHT22;49822;41.468;13.560;2022-12-24T16:19:34;10.50;93.90
63317;DHT22;49822;41.468;13.560;2022-12-24T16:22:06;10.40;93.20
63317;DHT22;49822;41.468;13.560;2022-12-24T16:24:55;10.50;94.20
63317;DHT22;49822;41.468;13.560;2022-12-24T16:27:23;10.50;93.30
63317;DHT22;49822;41.468;13.560;2022-12-24T16:29:50;10.40;93.10
63317;DHT22;49822;41.468;13.560;2022-12-24T16:32:40;10.30;93.00
63317;DHT22;49822;41.468;13.560;2022-12-24T16:35:26;10.40;93.40
63317;DHT22;49822;41.468;13.560;2022-12-24T16:37:54;10.60;94.60
63317;DHT22;49822;41.468;13.560;2022-12-24T16:40:22;10.70;94.20
63317;DHT22;49822;41.468;13.560;2022-12-24T16:42:56;10.50;92.70
63317;DHT22;49822;41.468;13.560;2022-12-24T16:45:43;10.40;92.70
63317;DHT22;49822;41.468;13.560;2022-12-24T16:48:20;10.30;92.70
63317;DHT22;49822;41.468;13.560;2022-12-24T16:50:49;10.30;93.20
63317;DHT22;49822;41.468;13.560;2022-12-24T16:53:19;10.20;91.60
63317;DHT22;49822;41.468;13.560;2022-12-24T16:55:47;10.00;92.80
63317;DHT22;49822;41.468;13.560;2022-12-24T16:58:18;10.00;93.50
63317;DHT22;49822;41.468;13.560;2022-12-24T17:00:48;10.00;92.80
63317;DHT22;49822;41.468;13.560;2022-12-24T17:03:16;9.90;93.20
63317;DHT22;49822;41.468;13.560;2022-12-24T17:05:44;9.90;93.70
63317;DHT22;49822;41.468;13.560;2022-12-24T17:08:12;10.00;94.00
63317;DHT22;49822;41.468;13.560;2022-12-24T17:10:51;10.10;94.10
63317;DHT22;49822;41.468;13.560;2022-12-24T17:13:18;10.00;93.00
63317;DHT22;49822;41.468;13.560;2022-12-24T17:15:47;9.70;92.20
63317;DHT22;49822;41.468;13.560;2022-12-24T17:18:16;9.40;92.90
63317;DHT22;49822;41.468;13.560;2022-12-24T17:20:43;9.50;94.40
63317;DHT22;49822;41.468;13.560;2022-12-24T17:23:11;9.70;95.70
63317;DHT22;49822;41.468;13.560;2022-12-24T17:25:38;9.80;96.10
63317;DHT22;49822;41.468;13.560;2022-12-24T17:28:05;10.00;96.20
63317;DHT22;49822;41.468;13.560;2022-12-24T17:30:33;10.00;95.90
63317;DHT22;49822;41.468;13.560;2022-12-24T17:33:02;9.80;94.90
63317;DHT22;49822;41.468;13.560;2022-12-24T17:35:39;9.80;94.90
63317;DHT22;49822;41.468;13.560;2022-12-24T17:38:07;9.80;94.80
63317;DHT22;49822;41.468;13.560;2022-12-24T17:40:35;9.80;94.70
63317;DHT22;49822;41.468;13.560;2022-12-24T17:43:02;9.50;93.10
63317;DHT22;49822;41.468;13.560;2022-12-24T17:45:31;9.20;93.80
63317;DHT22;49822;41.468;13.560;2022-12-24T17:48:00;9.20;94.80
63317;DHT22;49822;41.468;13.560;2022-12-24T17:50:28;9.30;95.50
63317;DHT22;49822;41.468;13.560;2022-12-24T17:52:56;9.50;96.30
63317;DHT22;49822;41.468;13.560;2022-12-24T17:55:24;9.70;96.50
63317;DHT22;49822;41.468;13.560;2022-12-24T17:57:51;9.80;96.30
63317;DHT22;49822;41.468;13.560;2022-12-24T18:00:21;9.40;94.70
63317;DHT22;49822;41.468;13.560;2022-12-24T18:02:59;9.40;95.60
63317;DHT22;49822;41.468;13.560;2022-12-24T18:05:28;9.40;96.20
63317;DHT22;49822;41.468;13.560;2022-12-24T18:07:55;9.40;96.40
63317;DHT22;49822;41.468;13.560;2022-12-24T18:10:23;9.40;96.50
63317;DHT22;49822;41.468;13.560;2022-12-24T18:12:51;9.40;96.80
63317;DHT22;49822;41.468;13.560;2022-12-24T18:15:20;9.50;97.10
63317;DHT22;49822;41.468;13.560;2022-12-24T18:17:54;9.60;97.10
63317;DHT22;49822;41.468;13.560;2022-12-24T18:20:21;9.70;97.30